createdAt,value
2023-02-01T15:26:27.081Z,101377.75
2023-02-01T15:31:34.651Z,101372.44
2023-02-01T15:36:38.192Z,101380.53
2023-02-01T15:41:39.961Z,101382.19
2023-02-01T15:46:46.219Z,101392.88
2023-02-01T15:51:48.374Z,101392.88
2023-02-01T15:56:56.426Z,101393.78
2023-02-01T16:01:58.034Z,101389.44
2023-02-01T16:07:02.677Z,101403.56
2023-02-01T16:12:18.614Z,101398.28
2023-02-01T16:17:20.106Z,101400.00
2023-02-01T16:22:21.814Z,101400.06
2023-02-01T16:27:23.677Z,101407.19
2023-02-01T16:32:25.276Z,101403.66
2023-02-01T16:37:28.901Z,101408.94
2023-02-01T16:42:31.739Z,101408.94
2023-02-01T16:47:33.264Z,101422.13
2023-02-01T16:52:36.560Z,101413.25
2023-02-01T16:57:37.968Z,101428.25
2023-02-01T17:02:41.178Z,101442.47
2023-02-01T17:07:42.759Z,101421.19
2023-02-01T17:12:44.288Z,101429.13
2023-02-01T17:17:45.982Z,101438.09
2023-02-01T17:22:47.775Z,101437.16
2023-02-01T17:27:49.439Z,101437.16
2023-02-01T17:32:50.875Z,101437.94
2023-02-01T17:37:53.103Z,101444.16
2023-02-01T17:42:57.715Z,101445.91
2023-02-01T17:47:59.310Z,101443.22
2023-02-01T17:53:00.788Z,101446.88
2023-02-01T17:58:02.374Z,101440.75
2023-02-01T18:03:03.844Z,101453.09
2023-02-01T18:08:05.606Z,101465.50
2023-02-01T18:13:07.128Z,101448.78
2023-02-01T18:18:08.559Z,101453.19
2023-02-01T18:23:22.711Z,101450.56
2023-02-01T18:28:24.196Z,101449.69
2023-02-01T18:33:25.642Z,101453.19
2023-02-01T18:38:27.117Z,101448.81
2023-02-01T18:43:28.606Z,101454.13
2023-02-01T18:48:30.240Z,101451.44
2023-02-01T18:53:31.801Z,101460.22
2023-02-01T18:58:33.274Z,101453.19
2023-02-01T19:03:40.366Z,101462.81
2023-02-01T19:08:46.288Z,101458.50
2023-02-01T19:13:50.817Z,101455.84
2023-02-01T19:18:53.166Z,101447.97
2023-02-01T19:23:54.605Z,101449.66
2023-02-01T19:28:58.296Z,101446.91
2023-02-01T19:33:59.745Z,101447.91
2023-02-01T19:39:01.162Z,101438.13
2023-02-01T19:44:04.289Z,101444.34
2023-02-01T19:49:07.812Z,101441.69
2023-02-01T19:54:09.332Z,101447.78
2023-02-01T19:59:12.281Z,101436.28
2023-02-01T20:04:14.489Z,101444.25
2023-02-01T20:09:20.958Z,101427.53
2023-02-01T20:14:25.891Z,101435.44
2023-02-01T20:19:27.440Z,101424.84
2023-02-01T20:24:28.917Z,101437.19
2023-02-01T20:29:31.293Z,101441.59
2023-02-01T20:34:32.781Z,101447.72
2023-02-01T20:39:34.332Z,101438.03
2023-02-01T20:44:35.781Z,101456.56
2023-02-01T20:49:40.297Z,101446.81
2023-02-01T20:54:41.974Z,101463.69
2023-02-01T20:59:43.453Z,101470.66
2023-02-01T21:04:44.925Z,101470.75
2023-02-01T21:09:46.401Z,101468.00
2023-02-01T21:14:47.935Z,101460.97
2023-02-01T21:19:49.405Z,101466.34
2023-02-01T21:24:50.896Z,101479.63
2023-02-01T21:29:52.361Z,101472.50
2023-02-01T21:34:53.849Z,101477.88
2023-02-01T21:39:56.377Z,101488.41
2023-02-01T21:44:59.393Z,101490.13
2023-02-01T21:50:00.878Z,101489.34
2023-02-01T21:55:03.945Z,101488.53
2023-02-01T22:00:08.564Z,101497.38
2023-02-01T22:05:11.097Z,101496.34
2023-02-01T22:10:13.179Z,101495.53
2023-02-01T22:15:14.738Z,101510.59
2023-02-01T22:20:16.601Z,101507.88
2023-02-01T22:25:18.002Z,101506.06
2023-02-01T22:30:19.500Z,101525.50
2023-02-01T22:35:21.003Z,101512.25
2023-02-01T22:40:22.746Z,101516.72
2023-02-01T22:45:24.432Z,101536.22
2023-02-01T22:50:26.103Z,101540.72
2023-02-01T22:55:27.529Z,101542.38
2023-02-01T23:00:29.926Z,101545.81
2023-02-01T23:05:31.349Z,101555.56
2023-02-01T23:10:32.804Z,101553.91
2023-02-01T23:15:34.363Z,101559.22
2023-02-01T23:20:35.825Z,101553.94
2023-02-01T23:25:37.379Z,101545.94
2023-02-01T23:30:38.979Z,101560.88
2023-02-01T23:35:40.504Z,101562.66
2023-02-01T23:40:41.972Z,101557.41
2023-02-01T23:45:43.365Z,101562.66
2023-02-01T23:50:44.861Z,101563.63
2023-02-01T23:55:46.348Z,101566.25
